Time;durP1;ratioP1;P1;durP2;ratioP2;P2;SDS_P1;SDS_P2;PMS_P1;PMS_P2;Temp;Humidity;BMP_temperature;BMP_pressure;BME280_temperature;BME280_humidity;BME280_pressure;Samples;Min_cycle;Max_cycle;Signal;HPM_P1;HPM_P2
2022/09/24 00:00:33;;;;;;;;;;;5.30;99.90;;;;;;5124790;27;19912;-56
2022/09/24 00:03:13;;;;;;;;;;;5.30;99.90;;;;;;5125167;27;19912;-56
2022/09/24 00:05:53;;;;;;;;;;;5.30;99.90;;;;;;5125760;27;20385;-56
2022/09/24 00:08:33;;;;;;;;;;;5.30;99.90;;;;;;5104262;27;19926;-56
2022/09/24 00:11:13;;;;;;;;;;;5.30;99.90;;;;;;5105226;27;19926;-57
2022/09/24 00:13:52;;;;;;;;;;;5.30;99.90;;;;;;5104858;27;19916;-56
2022/09/24 00:16:33;;;;;;;;;;;5.30;99.90;;;;;;5125348;27;19911;-56
2022/09/24 00:19:14;;;;;;;;;;;5.30;99.90;;;;;;5104145;27;19939;-56
2022/09/24 00:21:53;;;;;;;;;;;5.30;99.90;;;;;;5119868;27;20180;-56
2022/09/24 00:27:31;;;;;;;;;;;5.30;99.90;;;;;;5103851;27;20414;-56
2022/09/24 00:30:11;;;;;;;;;;;5.40;99.90;;;;;;5124012;27;19918;-55
2022/09/24 00:32:52;;;;;;;;;;;5.40;99.90;;;;;;5091270;27;19958;-56
2022/09/24 00:35:32;;;;;;;;;;;5.40;99.90;;;;;;5103798;27;20431;-56
2022/09/24 00:38:12;;;;;;;;;;;5.40;99.90;;;;;;5104418;27;20377;-56
2022/09/24 00:40:52;;;;;;;;;;;5.30;99.90;;;;;;5104377;27;19926;-56
2022/09/24 00:43:33;;;;;;;;;;;5.30;99.90;;;;;;5146496;27;19911;-56
2022/09/24 00:46:16;;;;;;;;;;;5.40;99.90;;;;;;5125155;27;19933;-56
2022/09/24 00:48:58;;;;;;;;;;;5.30;99.90;;;;;;5082847;28;20320;-56
2022/09/24 00:51:38;;;;;;;;;;;5.40;99.90;;;;;;5092660;27;19954;-56
2022/09/24 00:54:19;;;;;;;;;;;5.40;99.90;;;;;;5124509;27;19953;-57
2022/09/24 00:57:01;;;;;;;;;;;5.50;99.90;;;;;;5103838;27;19946;-57
2022/09/24 00:59:41;;;;;;;;;;;5.50;99.90;;;;;;5104053;27;19981;-56
2022/09/24 01:02:24;;;;;;;;;;;5.50;99.90;;;;;;5114538;27;19965;-56
2022/09/24 01:05:05;;;;;;;;;;;5.40;99.90;;;;;;5104882;27;19931;-57
2022/09/24 01:07:47;;;;;;;;;;;5.40;99.90;;;;;;5104161;27;20327;-56
2022/09/24 01:13:41;;;;;;;;;;;5.50;99.90;;;;;;5104250;27;20315;-56
2022/09/24 01:16:26;;;;;;;;;;;5.40;99.90;;;;;;5104422;27;20490;-56
2022/09/24 01:19:12;;;;;;;;;;;5.30;99.90;;;;;;5120656;27;20440;-56
2022/09/24 01:21:54;;;;;;;;;;;5.30;99.90;;;;;;5098524;27;19966;-57
2022/09/24 01:24:44;;;;;;;;;;;5.30;99.90;;;;;;5123922;27;19919;-56
2022/09/24 01:27:30;;;;;;;;;;;5.30;99.90;;;;;;5142471;27;19915;-57
2022/09/24 01:30:11;;;;;;;;;;;5.40;99.90;;;;;;5100759;27;19926;-57
2022/09/24 01:32:53;;;;;;;;;;;5.40;99.90;;;;;;5068802;28;19920;-56
2022/09/24 01:35:35;;;;;;;;;;;5.40;99.90;;;;;;5082444;27;19974;-56
2022/09/24 01:38:16;;;;;;;;;;;5.30;99.90;;;;;;5124325;27;19915;-56
2022/09/24 01:41:01;;;;;;;;;;;5.30;99.90;;;;;;5085540;27;19931;-57
2022/09/24 01:43:42;;;;;;;;;;;5.30;99.90;;;;;;5089307;27;20154;-57
2022/09/24 01:46:22;;;;;;;;;;;5.30;99.90;;;;;;5125228;27;20319;-56
2022/09/24 01:49:05;;;;;;;;;;;5.30;99.90;;;;;;5103040;27;19926;-57
2022/09/24 01:51:47;;;;;;;;;;;5.30;99.90;;;;;;5104265;27;19916;-56
2022/09/24 01:54:29;;;;;;;;;;;5.30;99.90;;;;;;5104857;27;20328;-55
2022/09/24 01:57:12;;;;;;;;;;;5.30;99.90;;;;;;5104738;27;20134;-56
2022/09/24 01:59:56;;;;;;;;;;;5.40;99.90;;;;;;5125095;27;19918;-56
2022/09/24 02:02:38;;;;;;;;;;;5.40;99.90;;;;;;5092004;27;19917;-56
2022/09/24 02:05:23;;;;;;;;;;;5.40;99.90;;;;;;5083786;28;19921;-56
2022/09/24 02:08:08;;;;;;;;;;;5.40;99.90;;;;;;5124784;27;19916;-56
2022/09/24 02:10:49;;;;;;;;;;;5.40;99.90;;;;;;5103997;27;19962;-56
2022/09/24 02:13:31;;;;;;;;;;;5.50;99.90;;;;;;5125414;27;19915;-56
2022/09/24 02:16:15;;;;;;;;;;;5.50;99.90;;;;;;5092888;27;20440;-56
2022/09/24 02:18:56;;;;;;;;;;;5.60;99.90;;;;;;5073755;27;19934;-56
2022/09/24 02:21:38;;;;;;;;;;;5.60;99.90;;;;;;5086693;27;19927;-56
2022/09/24 02:24:19;;;;;;;;;;;5.60;99.90;;;;;;5096646;27;19927;-56
2022/09/24 02:27:00;;;;;;;;;;;5.50;99.90;;;;;;5124471;27;19922;-56
2022/09/24 02:29:39;;;;;;;;;;;5.50;99.90;;;;;;5124040;27;20537;-56
2022/09/24 02:32:20;;;;;;;;;;;5.50;99.90;;;;;;5120381;27;19926;-56
2022/09/24 02:35:02;;;;;;;;;;;5.50;99.90;;;;;;5104413;27;19969;-56
2022/09/24 02:37:43;;;;;;;;;;;5.60;99.90;;;;;;5103690;27;19965;-57
2022/09/24 02:40:23;;;;;;;;;;;5.60;99.90;;;;;;5103843;27;20315;-56
2022/09/24 02:43:05;;;;;;;;;;;5.50;99.90;;;;;;5161895;22;19942;-57
2022/09/24 02:45:44;;;;;;;;;;;5.50;99.90;;;;;;5125112;27;19918;-57
2022/09/24 02:48:24;;;;;;;;;;;5.30;99.90;;;;;;5105195;27;19912;-56
2022/09/24 02:51:04;;;;;;;;;;;5.20;99.90;;;;;;5104862;27;19962;-57
2022/09/24 02:53:44;;;;;;;;;;;5.20;99.90;;;;;;5104198;27;19926;-57
2022/09/24 02:56:24;;;;;;;;;;;5.10;99.90;;;;;;5104305;27;19926;-57
2022/09/24 02:59:04;;;;;;;;;;;4.90;99.90;;;;;;5103745;27;19912;-55
2022/09/24 03:01:43;;;;;;;;;;;4.70;99.90;;;;;;5104905;27;19912;-56
2022/09/24 03:04:24;;;;;;;;;;;4.60;99.90;;;;;;5104910;27;20343;-57
2022/09/24 03:07:05;;;;;;;;;;;4.40;99.90;;;;;;5104753;27;19912;-57
2022/09/24 03:09:44;;;;;;;;;;;4.30;99.90;;;;;;5103934;27;19957;-56
2022/09/24 03:12:24;;;;;;;;;;;4.20;99.90;;;;;;5102993;27;19916;-56
2022/09/24 03:15:05;;;;;;;;;;;4.10;99.90;;;;;;5104604;27;20462;-56
2022/09/24 03:17:44;;;;;;;;;;;4.00;99.90;;;;;;5104480;27;19926;-56
2022/09/24 03:20:24;;;;;;;;;;;4.00;99.90;;;;;;5097449;27;19916;-56
2022/09/24 03:23:04;;;;;;;;;;;4.10;99.90;;;;;;5096684;27;19946;-57
2022/09/24 03:25:43;;;;;;;;;;;4.00;99.90;;;;;;5104112;27;19958;-57
2022/09/24 03:28:23;;;;;;;;;;;4.10;99.90;;;;;;5101799;27;20320;-57
2022/09/24 03:31:03;;;;;;;;;;;4.10;99.90;;;;;;5098945;27;19930;-57
2022/09/24 03:33:44;;;;;;;;;;;4.10;99.90;;;;;;5103850;27;20150;-56
2022/09/24 03:36:25;;;;;;;;;;;4.10;99.90;;;;;;5103106;27;20327;-55
2022/09/24 03:39:06;;;;;;;;;;;4.10;99.90;;;;;;5095123;27;19934;-56
2022/09/24 03:41:46;;;;;;;;;;;3.90;99.90;;;;;;5113021;27;19953;-57
2022/09/24 03:44:26;;;;;;;;;;;3.90;99.90;;;;;;5094254;27;19965;-57
2022/09/24 03:47:05;;;;;;;;;;;3.90;99.90;;;;;;5103514;27;20442;-56
2022/09/24 03:49:45;;;;;;;;;;;3.90;99.90;;;;;;5103715;27;21090;-56
2022/09/24 03:52:26;;;;;;;;;;;3.80;99.90;;;;;;5092481;27;19934;-57
2022/09/24 03:55:07;;;;;;;;;;;3.80;99.90;;;;;;5088252;27;20344;-56
2022/09/24 03:57:48;;;;;;;;;;;3.80;99.90;;;;;;5103876;27;20162;-55
2022/09/24 04:00:28;;;;;;;;;;;3.90;99.90;;;;;;5104384;27;19957;-56
2022/09/24 04:03:07;;;;;;;;;;;4.00;99.90;;;;;;5104717;27;20371;-56
2022/09/24 04:05:47;;;;;;;;;;;4.10;99.90;;;;;;5084315;28;20224;-57
2022/09/24 04:08:27;;;;;;;;;;;4.30;99.90;;;;;;5105074;27;19973;-57
2022/09/24 04:11:07;;;;;;;;;;;4.40;99.90;;;;;;5104924;27;19926;-56
2022/09/24 04:13:47;;;;;;;;;;;4.50;99.90;;;;;;5111872;27;19918;-56
2022/09/24 04:16:26;;;;;;;;;;;4.50;99.90;;;;;;5105094;27;20347;-57
2022/09/24 04:19:07;;;;;;;;;;;4.50;99.90;;;;;;5098644;27;19953;-56
2022/09/24 04:21:46;;;;;;;;;;;4.60;99.90;;;;;;5104148;27;19926;-57
2022/09/24 04:24:26;;;;;;;;;;;4.60;99.90;;;;;;5104305;27;19930;-57
2022/09/24 04:27:06;;;;;;;;;;;4.50;99.90;;;;;;5105048;27;19946;-55
2022/09/24 04:29:46;;;;;;;;;;;4.50;99.90;;;;;;5104162;27;20324;-57
2022/09/24 04:32:25;;;;;;;;;;;4.50;99.90;;;;;;5104705;27;20423;-57
2022/09/24 04:35:06;;;;;;;;;;;4.60;99.90;;;;;;5125388;27;19911;-56
2022/09/24 04:37:47;;;;;;;;;;;4.60;99.90;;;;;;5103990;27;19962;-56
2022/09/24 04:40:27;;;;;;;;;;;4.60;99.90;;;;;;5104208;27;20422;-56
2022/09/24 04:43:07;;;;;;;;;;;4.70;99.90;;;;;;5096865;27;19913;-55
2022/09/24 04:45:46;;;;;;;;;;;4.80;99.90;;;;;;5104963;27;19928;-56
2022/09/24 04:48:26;;;;;;;;;;;4.80;99.90;;;;;;5125075;27;19912;-56
2022/09/24 04:51:06;;;;;;;;;;;4.90;99.90;;;;;;5096412;27;19954;-56
2022/09/24 04:53:49;;;;;;;;;;;4.90;99.90;;;;;;5081086;27;19930;-57
2022/09/24 04:56:29;;;;;;;;;;;5.00;99.90;;;;;;5074295;28;20266;-57
2022/09/24 04:59:10;;;;;;;;;;;5.10;99.90;;;;;;5086331;27;20060;-56
2022/09/24 05:01:51;;;;;;;;;;;5.10;99.90;;;;;;5085838;27;20021;-56
2022/09/24 05:04:31;;;;;;;;;;;5.20;99.90;;;;;;5094610;27;19922;-55
2022/09/24 05:07:11;;;;;;;;;;;5.20;99.90;;;;;;5096350;27;19926;-56
2022/09/24 05:09:51;;;;;;;;;;;5.20;99.90;;;;;;5118058;27;19922;-57
2022/09/24 05:12:32;;;;;;;;;;;5.30;99.90;;;;;;5115457;27;19918;-57
2022/09/24 05:15:12;;;;;;;;;;;5.20;99.90;;;;;;5083709;27;19935;-56
2022/09/24 05:17:52;;;;;;;;;;;5.30;99.90;;;;;;5090388;27;19953;-56
2022/09/24 05:20:32;;;;;;;;;;;5.30;99.90;;;;;;5090419;27;19930;-56
2022/09/24 05:23:12;;;;;;;;;;;5.40;99.90;;;;;;5127215;27;21812;-57
2022/09/24 05:28:49;;;;;;;;;;;5.50;99.90;;;;;;5101149;27;19913;-56
2022/09/24 05:31:29;;;;;;;;;;;5.60;99.90;;;;;;5102253;27;19958;-57
2022/09/24 05:34:09;;;;;;;;;;;5.70;99.90;;;;;;5087074;27;20371;-57
2022/09/24 05:36:48;;;;;;;;;;;5.60;99.90;;;;;;5103416;27;20443;-57
2022/09/24 05:39:29;;;;;;;;;;;5.60;99.90;;;;;;5102001;27;19930;-57
2022/09/24 05:42:09;;;;;;;;;;;5.50;99.90;;;;;;5094912;27;19938;-56
2022/09/24 05:44:50;;;;;;;;;;;5.50;99.90;;;;;;5102133;27;20486;-57
2022/09/24 05:47:29;;;;;;;;;;;5.40;99.90;;;;;;5100061;27;19930;-57
2022/09/24 05:50:09;;;;;;;;;;;5.50;99.90;;;;;;5101827;27;19926;-56
2022/09/24 05:52:49;;;;;;;;;;;5.50;99.90;;;;;;5117612;27;19920;-56
2022/09/24 05:55:29;;;;;;;;;;;5.50;99.90;;;;;;5102161;27;19970;-56
2022/09/24 05:58:10;;;;;;;;;;;5.50;99.90;;;;;;5102764;27;20430;-58
2022/09/24 06:00:50;;;;;;;;;;;5.50;99.90;;;;;;5082217;28;19916;-56
2022/09/24 06:03:30;;;;;;;;;;;5.60;99.90;;;;;;5112790;27;19912;-57
2022/09/24 06:06:10;;;;;;;;;;;5.60;99.90;;;;;;5104109;27;20323;-57
2022/09/24 06:08:50;;;;;;;;;;;5.70;99.90;;;;;;5102211;27;19938;-55
2022/09/24 06:11:33;;;;;;;;;;;5.60;99.90;;;;;;5083302;28;19921;-57
2022/09/24 06:14:14;;;;;;;;;;;5.60;99.90;;;;;;5103948;27;19954;-57
2022/09/24 06:16:54;;;;;;;;;;;5.60;99.90;;;;;;5099074;27;20236;-56
2022/09/24 06:19:34;;;;;;;;;;;5.60;99.90;;;;;;5102160;27;20427;-57
2022/09/24 06:22:14;;;;;;;;;;;5.50;99.90;;;;;;5083516;28;20396;-56
2022/09/24 06:24:53;;;;;;;;;;;5.50;99.90;;;;;;5103934;27;19926;-58
2022/09/24 06:27:33;;;;;;;;;;;5.60;99.90;;;;;;5101126;27;19957;-56
2022/09/24 06:30:13;;;;;;;;;;;5.60;99.90;;;;;;5123011;27;19915;-56
2022/09/24 06:32:53;;;;;;;;;;;5.60;99.90;;;;;;5101760;27;20323;-56
2022/09/24 06:35:33;;;;;;;;;;;5.70;99.90;;;;;;5097937;27;19930;-56
2022/09/24 06:38:13;;;;;;;;;;;5.80;99.90;;;;;;5101413;27;19916;-56
2022/09/24 06:40:58;;;;;;;;;;;5.90;99.90;;;;;;5104210;27;20304;-55
2022/09/24 06:43:37;;;;;;;;;;;6.20;99.90;;;;;;5092485;27;20286;-56
2022/09/24 06:46:17;;;;;;;;;;;6.50;99.90;;;;;;5080570;28;20420;-55
2022/09/24 06:48:57;;;;;;;;;;;6.80;99.90;;;;;;5100417;27;19934;-56
2022/09/24 06:51:36;;;;;;;;;;;7.10;99.90;;;;;;5095789;27;19917;-55
2022/09/24 06:54:16;;;;;;;;;;;7.40;99.90;;;;;;5113568;27;19912;-54
2022/09/24 06:56:56;;;;;;;;;;;7.60;99.90;;;;;;5102778;27;19962;-54
2022/09/24 06:59:36;;;;;;;;;;;7.90;99.90;;;;;;5080264;27;19920;-55
2022/09/24 07:02:16;;;;;;;;;;;8.30;99.90;;;;;;5120647;27;19916;-56
2022/09/24 07:04:56;;;;;;;;;;;8.70;99.90;;;;;;5088465;27;19916;-57
2022/09/24 07:07:36;;;;;;;;;;;9.00;99.90;;;;;;5082346;27;20147;-57
2022/09/24 07:10:17;;;;;;;;;;;9.10;99.90;;;;;;5118346;27;19916;-55
2022/09/24 07:12:57;;;;;;;;;;;9.20;99.90;;;;;;5098620;27;19930;-55
2022/09/24 07:15:36;;;;;;;;;;;9.30;99.90;;;;;;5075194;28;19916;-56
2022/09/24 07:18:17;;;;;;;;;;;9.20;99.90;;;;;;5069478;28;19917;-53
2022/09/24 07:20:56;;;;;;;;;;;9.30;99.90;;;;;;5093361;27;20522;-56
2022/09/24 07:23:36;;;;;;;;;;;9.30;99.90;;;;;;5067230;28;19944;-57
2022/09/24 07:26:16;;;;;;;;;;;9.20;99.90;;;;;;5097183;27;19927;-55
2022/09/24 07:28:56;;;;;;;;;;;9.20;99.90;;;;;;5101873;27;19928;-56
2022/09/24 07:31:36;;;;;;;;;;;9.20;99.90;;;;;;5088285;27;19913;-56
2022/09/24 07:34:15;;;;;;;;;;;9.20;99.90;;;;;;5105925;27;20270;-55
2022/09/24 07:36:56;;;;;;;;;;;9.30;99.90;;;;;;5075598;28;19920;-55
2022/09/24 07:39:37;;;;;;;;;;;9.40;99.90;;;;;;5102908;27;19916;-56
2022/09/24 07:42:16;;;;;;;;;;;9.50;99.90;;;;;;5104555;27;19912;-56
2022/09/24 07:44:56;;;;;;;;;;;9.70;99.90;;;;;;5104996;27;20440;-56
2022/09/24 07:47:36;;;;;;;;;;;9.90;99.90;;;;;;5104472;27;19926;-56
2022/09/24 07:50:17;;;;;;;;;;;10.00;99.90;;;;;;5104134;27;19930;-55
2022/09/24 07:52:57;;;;;;;;;;;10.20;99.90;;;;;;5118960;27;20385;-55
2022/09/24 07:55:39;;;;;;;;;;;10.40;99.90;;;;;;5125470;27;19912;-57
2022/09/24 07:58:18;;;;;;;;;;;10.60;99.90;;;;;;5104750;27;20153;-55
2022/09/24 08:01:11;;;;;;;;;;;10.60;99.90;;;;;;5104746;27;19926;-55
2022/09/24 08:03:52;;;;;;;;;;;10.70;99.90;;;;;;5104882;27;19930;-57
2022/09/24 08:06:33;;;;;;;;;;;10.70;99.90;;;;;;5124614;27;19911;-57
2022/09/24 08:09:14;;;;;;;;;;;10.80;99.90;;;;;;5124577;27;20395;-55
2022/09/24 08:11:54;;;;;;;;;;;10.90;99.90;;;;;;5105468;27;19958;-56
2022/09/24 08:14:34;;;;;;;;;;;11.00;99.90;;;;;;5105231;27;19962;-56
2022/09/24 08:17:14;;;;;;;;;;;11.10;99.90;;;;;;5124967;27;20544;-56
2022/09/24 08:19:55;;;;;;;;;;;11.30;99.90;;;;;;5104384;27;19912;-56
2022/09/24 08:22:35;;;;;;;;;;;11.40;99.90;;;;;;5121263;27;19912;-54
2022/09/24 08:25:15;;;;;;;;;;;11.60;99.90;;;;;;5104686;27;20327;-55
2022/09/24 08:27:55;;;;;;;;;;;11.80;99.90;;;;;;5104293;27;20132;-57
2022/09/24 08:30:35;;;;;;;;;;;11.90;99.90;;;;;;5104361;27;19912;-56
2022/09/24 08:33:14;;;;;;;;;;;12.00;99.90;;;;;;5113213;27;19912;-55
2022/09/24 08:35:54;;;;;;;;;;;12.20;99.90;;;;;;5104821;27;19970;-56
2022/09/24 08:38:35;;;;;;;;;;;12.40;99.90;;;;;;5145791;27;20502;-56
2022/09/24 08:41:24;;;;;;;;;;;12.40;99.90;;;;;;5099202;27;20419;-55
2022/09/24 08:44:07;;;;;;;;;;;12.40;99.90;;;;;;5102575;27;20532;-55
2022/09/24 08:49:49;;;;;;;;;;;12.60;99.90;;;;;;5103098;27;19927;-55
2022/09/24 08:52:36;;;;;;;;;;;12.80;99.90;;;;;;5104659;27;20422;-55
2022/09/24 08:55:20;;;;;;;;;;;13.00;99.90;;;;;;5104851;27;20210;-56
2022/09/24 08:58:02;;;;;;;;;;;13.20;99.90;;;;;;5104367;27;19930;-54
2022/09/24 09:00:45;;;;;;;;;;;13.50;99.90;;;;;;5098042;27;20431;-56
2022/09/24 09:03:30;;;;;;;;;;;13.70;99.90;;;;;;5089710;27;20319;-55
2022/09/24 09:06:15;;;;;;;;;;;14.00;99.90;;;;;;5089957;27;19916;-56
2022/09/24 09:08:59;;;;;;;;;;;14.20;99.90;;;;;;5103314;27;20319;-54
2022/09/24 09:11:40;;;;;;;;;;;14.30;99.90;;;;;;5104514;27;20315;-56
2022/09/24 09:14:25;;;;;;;;;;;14.40;99.90;;;;;;5104649;27;19930;-55
2022/09/24 09:17:09;;;;;;;;;;;14.60;99.90;;;;;;5080134;28;20410;-55
2022/09/24 09:19:54;;;;;;;;;;;14.60;99.90;;;;;;5102404;27;19933;-53
2022/09/24 09:22:37;;;;;;;;;;;14.60;99.90;;;;;;5118896;27;19919;-56
2022/09/24 09:25:22;;;;;;;;;;;14.70;99.90;;;;;;5099492;27;19982;-55
2022/09/24 09:28:04;;;;;;;;;;;14.80;99.90;;;;;;5078352;27;19958;-55
2022/09/24 09:30:48;;;;;;;;;;;14.80;99.90;;;;;;5080909;27;19934;-55
2022/09/24 09:33:34;;;;;;;;;;;14.70;99.90;;;;;;5094868;27;19912;-55
2022/09/24 09:36:26;;;;;;;;;;;14.60;99.90;;;;;;5098417;27;19926;-56
2022/09/24 09:39:12;;;;;;;;;;;14.60;99.90;;;;;;5118372;27;19916;-55
2022/09/24 09:41:55;;;;;;;;;;;14.70;99.90;;;;;;5102058;27;19961;-54
2022/09/24 09:44:40;;;;;;;;;;;14.80;99.90;;;;;;5101165;27;19912;-55
2022/09/24 09:47:22;;;;;;;;;;;14.80;99.90;;;;;;5090184;27;20605;-55
2022/09/24 09:50:05;;;;;;;;;;;14.90;99.90;;;;;;5081273;28;20369;-55
2022/09/24 09:52:46;;;;;;;;;;;15.20;99.90;;;;;;5164044;27;19976;-56
2022/09/24 09:55:27;;;;;;;;;;;15.40;99.90;;;;;;5074119;27;20435;-54
2022/09/24 09:58:17;;;;;;;;;;;15.60;99.90;;;;;;5087732;27;19945;-54
2022/09/24 10:01:04;;;;;;;;;;;15.80;99.90;;;;;;5101656;27;20427;-55
2022/09/24 10:03:49;;;;;;;;;;;15.90;99.90;;;;;;5087656;27;19913;-56
2022/09/24 10:06:32;;;;;;;;;;;16.10;99.90;;;;;;5110954;27;20167;-56
2022/09/24 10:09:15;;;;;;;;;;;16.30;99.90;;;;;;5100809;27;19920;-56
2022/09/24 10:11:55;;;;;;;;;;;16.70;99.90;;;;;;5084039;28;19912;-56
2022/09/24 10:14:36;;;;;;;;;;;17.10;99.90;;;;;;5102798;27;19981;-55
2022/09/24 10:17:17;;;;;;;;;;;17.60;99.90;;;;;;5077312;28;19916;-56
2022/09/24 10:19:59;;;;;;;;;;;18.00;99.90;;;;;;5076406;28;19912;-56
2022/09/24 10:22:40;;;;;;;;;;;18.50;99.90;;;;;;5075999;28;19912;-56
2022/09/24 10:25:23;;;;;;;;;;;18.90;99.90;;;;;;5122857;27;19912;-56
2022/09/24 10:31:04;;;;;;;;;;;19.30;99.90;;;;;;5082203;28;20386;-56
2022/09/24 10:33:45;;;;;;;;;;;19.60;99.90;;;;;;5081993;27;20352;-55
2022/09/24 10:36:26;;;;;;;;;;;19.70;99.90;;;;;;5071810;28;19916;-55
2022/09/24 10:39:12;;;;;;;;;;;19.80;99.90;;;;;;5078748;28;19916;-56
2022/09/24 10:41:54;;;;;;;;;;;19.90;99.90;;;;;;5103048;27;19912;-54
2022/09/24 10:44:35;;;;;;;;;;;19.90;99.90;;;;;;5094628;27;19920;-54
2022/09/24 10:47:27;;;;;;;;;;;20.00;99.90;;;;;;5110664;27;20328;-55
2022/09/24 10:50:12;;;;;;;;;;;20.10;99.90;;;;;;5081237;28;19916;-56
2022/09/24 10:52:56;;;;;;;;;;;20.00;99.90;;;;;;5076927;27;19926;-56
2022/09/24 10:55:46;;;;;;;;;;;19.80;99.90;;;;;;5103112;27;19916;-56
2022/09/24 10:58:32;;;;;;;;;;;19.70;99.90;;;;;;5102713;27;19912;-55
2022/09/24 11:01:15;;;;;;;;;;;19.60;99.90;;;;;;5083236;28;19913;-56
2022/09/24 11:04:12;;;;;;;;;;;19.50;99.90;;;;;;5104158;27;20157;-56
2022/09/24 11:07:03;;;;;;;;;;;19.30;99.90;;;;;;5084457;28;19913;-55
2022/09/24 11:09:45;;;;;;;;;;;19.20;99.90;;;;;;5076077;28;19913;-53
2022/09/24 11:12:31;;;;;;;;;;;19.30;99.90;;;;;;5080526;28;19912;-56
2022/09/24 11:15:18;;;;;;;;;;;19.30;99.90;;;;;;5103339;27;19951;-54
2022/09/24 11:18:08;;;;;;;;;;;19.40;99.90;;;;;;5079498;28;19917;-56
2022/09/24 11:20:50;;;;;;;;;;;19.60;99.90;;;;;;5080263;28;19920;-54
2022/09/24 11:23:46;;;;;;;;;;;19.70;99.90;;;;;;5093295;27;19916;-56
2022/09/24 11:26:32;;;;;;;;;;;19.80;99.90;;;;;;5100047;27;20722;-55
2022/09/24 11:29:23;;;;;;;;;;;19.80;99.90;;;;;;5101914;27;19946;-56
2022/09/24 11:32:07;;;;;;;;;;;20.10;99.90;;;;;;5103244;27;19912;-56
2022/09/24 11:34:52;;;;;;;;;;;20.30;99.90;;;;;;5083625;28;19912;-56
2022/09/24 11:37:45;;;;;;;;;;;20.20;99.90;;;;;;5104293;27;20213;-54
2022/09/24 11:40:29;;;;;;;;;;;20.20;99.90;;;;;;5092208;27;20331;-55
2022/09/24 11:43:17;;;;;;;;;;;20.10;99.90;;;;;;5087053;27;19934;-52
2022/09/24 11:46:04;;;;;;;;;;;19.80;99.90;;;;;;5087724;27;19930;-54
2022/09/24 11:48:52;;;;;;;;;;;19.60;99.90;;;;;;5092303;27;19931;-55
2022/09/24 11:51:36;;;;;;;;;;;19.60;99.90;;;;;;5096112;27;19927;-54
2022/09/24 11:54:21;;;;;;;;;;;19.60;99.90;;;;;;5083874;27;19950;-55
2022/09/24 11:57:04;;;;;;;;;;;19.80;99.90;;;;;;5070186;28;20460;-56
2022/09/24 11:59:47;;;;;;;;;;;20.00;99.90;;;;;;5085617;27;19950;-56
2022/09/24 12:02:29;;;;;;;;;;;20.00;99.90;;;;;;5085764;27;19973;-56
2022/09/24 12:05:15;;;;;;;;;;;20.00;99.90;;;;;;5092707;27;19930;-56
2022/09/24 12:07:57;;;;;;;;;;;20.20;99.90;;;;;;5100140;27;19934;-54
2022/09/24 12:10:39;;;;;;;;;;;20.30;99.90;;;;;;5103297;27;19920;-55
2022/09/24 12:13:22;;;;;;;;;;;20.40;99.90;;;;;;5097310;27;19920;-56
2022/09/24 12:16:06;;;;;;;;;;;20.40;99.90;;;;;;5101641;27;19953;-53
2022/09/24 12:18:50;;;;;;;;;;;20.40;99.20;;;;;;5100530;27;19937;-56
2022/09/24 12:21:32;;;;;;;;;;;20.20;98.50;;;;;;5061150;28;19921;-56
2022/09/24 12:24:17;;;;;;;;;;;19.90;99.70;;;;;;5101126;27;19934;-55
2022/09/24 12:26:58;;;;;;;;;;;19.80;99.90;;;;;;5101653;27;19950;-56
2022/09/24 12:32:57;;;;;;;;;;;19.40;99.90;;;;;;5098319;27;19954;-55
2022/09/24 12:35:46;;;;;;;;;;;19.30;99.90;;;;;;5095679;27;20463;-55
2022/09/24 12:38:29;;;;;;;;;;;19.20;99.90;;;;;;5102035;27;20412;-55
2022/09/24 12:41:20;;;;;;;;;;;19.10;99.90;;;;;;5122797;27;20330;-55
2022/09/24 12:44:06;;;;;;;;;;;19.00;99.90;;;;;;5083643;28;19917;-56
2022/09/24 12:46:48;;;;;;;;;;;18.80;99.90;;;;;;5083416;28;19920;-56
2022/09/24 12:49:30;;;;;;;;;;;18.60;99.90;;;;;;5102888;27;19943;-55
2022/09/24 12:52:18;;;;;;;;;;;18.60;99.90;;;;;;5104304;27;20324;-55
2022/09/24 12:54:59;;;;;;;;;;;18.70;99.90;;;;;;5121630;27;20990;-54
2022/09/24 12:57:41;;;;;;;;;;;18.90;99.90;;;;;;5088180;27;19950;-56
2022/09/24 13:00:35;;;;;;;;;;;19.00;99.90;;;;;;5099658;27;19934;-55
2022/09/24 13:03:33;;;;;;;;;;;19.10;99.90;;;;;;5100904;27;19953;-54
2022/09/24 13:06:22;;;;;;;;;;;19.10;99.90;;;;;;5088792;27;19938;-55
2022/09/24 13:09:03;;;;;;;;;;;19.00;99.90;;;;;;5073528;28;19917;-56
2022/09/24 13:11:43;;;;;;;;;;;18.90;99.90;;;;;;5089430;27;19937;-54
2022/09/24 13:14:28;;;;;;;;;;;18.90;99.90;;;;;;5088984;27;19934;-52
2022/09/24 13:17:08;;;;;;;;;;;18.90;99.90;;;;;;5078150;27;19954;-56
2022/09/24 13:19:50;;;;;;;;;;;18.90;99.90;;;;;;5100663;27;19962;-54
2022/09/24 13:22:32;;;;;;;;;;;19.10;99.90;;;;;;5122231;27;19922;-54
2022/09/24 13:25:21;;;;;;;;;;;19.10;99.90;;;;;;5098317;27;19920;-55
2022/09/24 13:28:03;;;;;;;;;;;19.10;99.90;;;;;;5081159;28;19913;-54
2022/09/24 13:30:44;;;;;;;;;;;19.00;99.90;;;;;;5098106;27;19958;-53
2022/09/24 13:33:30;;;;;;;;;;;18.90;99.90;;;;;;5086355;27;19985;-55
2022/09/24 13:36:13;;;;;;;;;;;18.90;99.90;;;;;;5098716;27;19953;-56
2022/09/24 13:38:55;;;;;;;;;;;18.90;99.90;;;;;;5096930;27;20589;-56
2022/09/24 13:41:40;;;;;;;;;;;19.00;99.90;;;;;;5097223;27;20431;-55
2022/09/24 13:44:21;;;;;;;;;;;18.80;99.90;;;;;;5095789;27;19930;-56
2022/09/24 13:47:04;;;;;;;;;;;18.70;99.90;;;;;;5115596;27;20382;-55
2022/09/24 13:49:46;;;;;;;;;;;18.60;99.90;;;;;;5057982;28;20331;-56
2022/09/24 13:52:29;;;;;;;;;;;18.40;99.90;;;;;;5102115;27;19930;-54
2022/09/24 13:55:15;;;;;;;;;;;18.60;99.90;;;;;;5082737;28;19912;-54
2022/09/24 13:57:55;;;;;;;;;;;18.70;99.90;;;;;;5075503;28;19917;-56
2022/09/24 14:00:37;;;;;;;;;;;18.70;99.90;;;;;;5109382;27;19919;-53
2022/09/24 14:03:21;;;;;;;;;;;18.60;99.90;;;;;;5096530;27;19924;-55
2022/09/24 14:06:01;;;;;;;;;;;18.60;99.90;;;;;;5081606;28;19917;-54
2022/09/24 14:08:43;;;;;;;;;;;18.60;99.90;;;;;;5098254;27;19912;-54
2022/09/24 14:11:25;;;;;;;;;;;18.60;99.90;;;;;;5100180;27;19926;-56
2022/09/24 14:14:16;;;;;;;;;;;18.70;99.90;;;;;;5095841;27;19989;-56
2022/09/24 14:17:07;;;;;;;;;;;18.90;99.90;;;;;;5085061;27;19946;-54
2022/09/24 14:19:47;;;;;;;;;;;19.00;99.90;;;;;;5099233;27;19930;-54
2022/09/24 14:22:30;;;;;;;;;;;18.80;99.90;;;;;;5094817;27;19958;-57
2022/09/24 14:25:14;;;;;;;;;;;18.60;99.90;;;;;;5095216;27;19933;-57
2022/09/24 14:27:55;;;;;;;;;;;18.60;99.90;;;;;;5080548;27;19966;-54
2022/09/24 14:30:37;;;;;;;;;;;18.50;99.90;;;;;;5101612;27;19927;-53
2022/09/24 14:33:20;;;;;;;;;;;18.40;99.90;;;;;;5091855;27;20327;-56
2022/09/24 14:36:02;;;;;;;;;;;18.20;99.90;;;;;;5088159;27;20344;-57
2022/09/24 14:38:51;;;;;;;;;;;18.20;99.90;;;;;;5098732;27;19926;-56
2022/09/24 14:41:32;;;;;;;;;;;18.20;99.90;;;;;;5102352;27;19966;-54
2022/09/24 14:44:16;;;;;;;;;;;18.20;99.90;;;;;;5132308;22;20212;-55
2022/09/24 14:46:57;;;;;;;;;;;18.20;99.90;;;;;;5064046;28;19913;-56
2022/09/24 14:49:44;;;;;;;;;;;18.10;99.90;;;;;;5097135;27;19912;-56
2022/09/24 14:52:27;;;;;;;;;;;18.10;99.90;;;;;;5102595;27;19912;-55
2022/09/24 14:55:17;;;;;;;;;;;18.00;99.90;;;;;;5100434;27;19961;-56
2022/09/24 14:57:58;;;;;;;;;;;17.90;99.90;;;;;;5076395;28;19917;-55
2022/09/24 15:00:46;;;;;;;;;;;17.90;99.90;;;;;;5094294;27;20282;-55
2022/09/24 15:03:29;;;;;;;;;;;17.80;99.90;;;;;;5101214;27;19916;-56
2022/09/24 15:06:19;;;;;;;;;;;17.60;99.90;;;;;;5082562;28;19912;-56
2022/09/24 15:09:00;;;;;;;;;;;17.50;99.90;;;;;;5090135;27;20277;-56
2022/09/24 15:11:41;;;;;;;;;;;17.40;99.90;;;;;;5077393;28;20299;-55
2022/09/24 15:14:26;;;;;;;;;;;17.50;99.90;;;;;;5074075;28;20214;-56
2022/09/24 15:17:10;;;;;;;;;;;17.40;99.90;;;;;;5100985;27;19916;-55
2022/09/24 15:19:53;;;;;;;;;;;17.50;99.90;;;;;;5088042;27;20443;-56
2022/09/24 15:22:33;;;;;;;;;;;17.50;99.90;;;;;;5121387;27;19949;-56
2022/09/24 15:25:14;;;;;;;;;;;17.40;99.90;;;;;;5082739;28;19913;-56
2022/09/24 15:27:54;;;;;;;;;;;17.30;99.90;;;;;;5101017;27;19917;-55
2022/09/24 15:30:34;;;;;;;;;;;17.10;99.90;;;;;;5102282;27;20274;-55
2022/09/24 15:33:16;;;;;;;;;;;17.00;99.90;;;;;;5098500;27;19930;-55
2022/09/24 15:35:57;;;;;;;;;;;17.00;99.90;;;;;;5123591;27;20368;-55
2022/09/24 15:38:37;;;;;;;;;;;17.00;99.90;;;;;;5095924;27;19913;-55
2022/09/24 15:41:16;;;;;;;;;;;17.00;99.90;;;;;;5123363;27;19911;-56
2022/09/24 15:43:57;;;;;;;;;;;17.00;99.90;;;;;;5073434;28;19913;-56
2022/09/24 15:46:38;;;;;;;;;;;16.90;99.90;;;;;;5117226;27;19911;-56
2022/09/24 15:49:20;;;;;;;;;;;16.80;99.90;;;;;;5119643;27;19920;-56
2022/09/24 15:52:02;;;;;;;;;;;16.60;99.90;;;;;;5106537;27;19912;-55
2022/09/24 15:54:42;;;;;;;;;;;16.40;99.90;;;;;;5108867;27;19911;-55
2022/09/24 15:57:22;;;;;;;;;;;16.20;99.90;;;;;;5121953;27;20277;-56
2022/09/24 16:00:02;;;;;;;;;;;16.00;99.90;;;;;;5093468;27;19930;-56
2022/09/24 16:02:46;;;;;;;;;;;15.90;99.90;;;;;;5100360;27;20422;-56
2022/09/24 16:05:26;;;;;;;;;;;15.70;99.90;;;;;;5082780;27;20382;-55
2022/09/24 16:08:06;;;;;;;;;;;15.60;99.90;;;;;;5117685;27;19920;-55